Time;durP1;ratioP1;P1;durP2;ratioP2;P2;SDS_P1;SDS_P2;PMS_P1;PMS_P2;Temp;Humidity;BMP_temperature;BMP_pressure;BME280_temperature;BME280_humidity;BME280_pressure;Samples;Min_cycle;Max_cycle;Signal;HPM_P1;HPM_P2
2023/05/11 00:00:26;;;;;;;5.38;3.88;;;;;;;11.03;100.00;98260.03;4180900;28;20047;-73
2023/05/11 00:02:27;;;;;;;4.55;3.75;;;;;;;11.00;100.00;98267.13;4187056;28;20467;-73
2023/05/11 00:04:27;;;;;;;5.07;3.08;;;;;;;11.00;100.00;98267.13;4186804;28;20076;-73
2023/05/11 00:06:27;;;;;;;6.88;3.58;;;;;;;11.03;100.00;98262.81;4189057;28;20827;-73
2023/05/11 00:08:27;;;;;;;4.45;3.47;;;;;;;11.02;100.00;98259.25;4182056;28;20032;-73
2023/05/11 00:10:28;;;;;;;4.68;3.20;;;;;;;11.05;100.00;98261.22;4186300;28;20044;-73
2023/05/11 00:12:28;;;;;;;3.80;3.40;;;;;;;11.04;100.00;98261.63;4188514;28;20033;-73
2023/05/11 00:14:29;;;;;;;3.83;3.00;;;;;;;11.05;100.00;98258.47;4179987;28;20041;-73
2023/05/11 00:16:29;;;;;;;7.93;3.95;;;;;;;11.03;100.00;98260.03;4180885;28;20183;-73
2023/05/11 00:18:30;;;;;;;3.90;3.50;;;;;;;10.99;100.00;98260.00;4180031;28;20485;-73
2023/05/11 00:20:30;;;;;;;4.07;3.50;;;;;;;10.96;100.00;98261.56;4177257;28;20033;-73
2023/05/11 00:22:31;;;;;;;5.30;3.30;;;;;;;10.98;100.00;98256.44;4179155;28;20041;-73
2023/05/11 00:24:31;;;;;;;4.13;3.22;;;;;;;10.96;100.00;98258.81;4186673;28;20098;-73
2023/05/11 00:26:31;;;;;;;4.22;3.30;;;;;;;10.96;100.00;98256.03;4184299;28;20052;-73
2023/05/11 00:28:32;;;;;;;5.00;3.80;;;;;;;10.94;100.00;98246.53;4174810;28;20114;-73
2023/05/11 00:30:32;;;;;;;4.70;3.40;;;;;;;10.96;100.00;98255.25;4182481;28;20040;-73
2023/05/11 00:32:32;;;;;;;3.58;3.20;;;;;;;10.98;100.00;98252.88;4179473;28;20049;-73
2023/05/11 00:34:33;;;;;;;5.40;3.42;;;;;;;10.97;100.00;98252.09;4175409;28;20075;-73
2023/05/11 00:36:33;;;;;;;4.00;3.20;;;;;;;10.98;100.00;98252.88;4177756;28;20916;-73
2023/05/11 00:38:35;;;;;;;6.25;3.60;;;;;;;10.96;100.00;98249.72;4175774;28;20477;-73
2023/05/11 00:40:35;;;;;;;5.03;4.00;;;;;;;10.97;100.00;98243.00;4177192;28;20033;-73
2023/05/11 00:42:36;;;;;;;6.82;3.70;;;;;;;10.95;100.00;98248.91;4174982;28;20810;-73
2023/05/11 00:44:36;;;;;;;3.75;3.03;;;;;;;10.96;100.00;98246.94;4175508;28;20083;-73
2023/05/11 00:46:36;;;;;;;4.05;3.65;;;;;;;10.96;100.00;98252.47;4176347;28;20291;-73
2023/05/11 00:48:37;;;;;;;4.13;3.10;;;;;;;10.95;100.00;98246.16;4177623;28;20136;-73
2023/05/11 00:50:38;;;;;;;5.32;3.53;;;;;;;10.95;100.00;98248.91;4187579;28;20037;-73
2023/05/11 00:52:39;;;;;;;6.07;3.25;;;;;;;10.92;100.00;98246.94;4176883;28;20084;-73
2023/05/11 00:54:40;;;;;;;4.57;3.28;;;;;;;10.93;100.00;98256.03;4187002;28;20483;-73
2023/05/11 00:56:41;;;;;;;5.30;3.45;;;;;;;10.92;100.00;98254.41;4179290;28;20083;-73
2023/05/11 00:58:41;;;;;;;5.00;3.10;;;;;;;10.88;100.00;98248.06;4184220;28;20144;-72
2023/05/11 01:00:43;;;;;;;6.25;3.13;;;;;;;10.89;100.00;98258.75;4180551;28;20076;-73
2023/05/11 01:02:43;;;;;;;3.38;3.00;;;;;;;10.84;100.00;98247.25;4186622;28;20040;-73
2023/05/11 01:04:44;;;;;;;4.45;3.00;;;;;;;10.81;100.00;98248.03;4187481;28;20491;-73
2023/05/11 01:07:02;;;;;;;6.20;3.78;;;;;;;10.78;100.00;98254.34;4184873;28;20045;-73
2023/05/11 01:09:08;;;;;;;3.97;3.08;;;;;;;10.78;100.00;98257.09;4188454;28;20076;-73
2023/05/11 01:11:31;;;;;;;4.57;3.40;;;;;;;10.75;100.00;98255.88;4182481;28;20366;-73
2023/05/11 01:13:57;;;;;;;;;;;;;;;10.74;100.00;98253.50;4186619;28;20052;-73
2023/05/11 01:16:04;;;;;;;5.10;3.55;;;;;;;10.69;100.00;98247.16;4180497;28;19966;-73
2023/05/11 01:18:32;;;;;;;5.30;3.80;;;;;;;10.73;100.00;98263.00;4182259;28;20067;-73
2023/05/11 01:20:33;;;;;;;4.18;2.80;;;;;;;10.68;100.00;98248.34;4181381;28;20072;-73
2023/05/11 01:23:07;;;;;;;3.90;3.08;;;;;;;10.74;100.00;98247.97;4175303;28;20256;-73
2023/05/11 01:25:33;;;;;;;4.57;3.40;;;;;;;10.74;100.00;98250.75;4180571;28;20091;-73
2023/05/11 01:27:44;;;;;;;4.10;2.92;;;;;;;10.72;100.00;98256.66;4177977;28;20048;-73
2023/05/11 01:30:06;;;;;;;5.72;3.22;;;;;;;10.73;100.00;98249.16;4179008;28;20407;-73
2023/05/11 01:32:19;;;;;;;16.97;3.50;;;;;;;10.73;100.00;98255.47;4177547;28;20052;-73
2023/05/11 01:34:25;;;;;;;3.30;2.47;;;;;;;10.72;100.00;98251.13;4180597;28;20078;-73
2023/05/11 01:36:31;;;;;;;5.15;3.00;;;;;;;10.74;100.00;98251.53;4180730;28;20045;-74
2023/05/11 01:38:34;;;;;;;7.72;3.00;;;;;;;10.75;100.00;98252.31;4188469;28;20432;-74
2023/05/11 01:40:38;;;;;;;4.80;3.13;;;;;;;10.71;100.00;98246.78;4186147;28;20044;-73
2023/05/11 01:42:48;;;;;;;5.00;2.70;;;;;;;10.75;100.00;98255.09;4180469;28;20053;-73
2023/05/11 01:44:52;;;;;;;4.35;2.83;;;;;;;10.72;100.00;98251.13;4182417;28;20040;-73
2023/05/11 01:46:55;;;;;;;5.45;3.42;;;;;;;10.73;100.00;98254.69;4183598;28;20686;-73
2023/05/11 01:48:58;;;;;;;3.75;2.50;;;;;;;10.73;100.00;98260.22;4182518;28;20439;-73
2023/05/11 01:51:01;;;;;;;3.50;2.72;;;;;;;10.72;100.00;98256.66;4184431;28;20047;-73
2023/05/11 01:53:04;;;;;;;3.28;2.70;;;;;;;10.67;100.00;98260.59;4186797;28;20044;-73
2023/05/11 01:55:06;;;;;;;4.05;3.00;;;;;;;10.67;100.00;98257.84;4185034;28;20048;-73
2023/05/11 01:57:10;;;;;;;3.75;2.85;;;;;;;10.67;100.00;98263.38;4183254;28;20064;-73
2023/05/11 01:59:13;;;;;;;3.78;2.88;;;;;;;10.66;100.00;98258.97;4181540;28;20588;-73
2023/05/11 02:01:15;;;;;;;3.97;3.25;;;;;;;10.63;100.00;98259.75;4183962;28;20043;-73
2023/05/11 02:03:17;;;;;;;5.13;3.00;;;;;;;10.62;100.00;98252.66;4183935;28;20049;-73
2023/05/11 02:05:21;;;;;;;3.95;2.70;;;;;;;10.61;100.00;98253.81;4183651;28;20041;-73
2023/05/11 02:07:23;;;;;;;4.18;2.40;;;;;;;10.61;100.00;98262.13;4187074;28;20048;-73
2023/05/11 02:09:23;;;;;;;3.55;2.70;;;;;;;10.64;100.00;98255.03;4180770;28;20051;-73
2023/05/11 02:11:26;;;;;;;4.03;2.83;;;;;;;10.61;100.00;98261.34;4186987;28;20028;-73
2023/05/11 02:13:28;;;;;;;4.35;3.00;;;;;;;10.64;100.00;98255.03;4183229;28;20056;-74
2023/05/11 02:15:30;;;;;;;3.53;2.60;;;;;;;10.65;100.00;98251.06;4184547;28;20041;-73
2023/05/11 02:17:32;;;;;;;5.28;2.83;;;;;;;10.62;100.00;98251.84;4182630;28;20282;-73
2023/05/11 02:19:34;;;;;;;3.65;2.90;;;;;;;10.61;100.00;98250.25;4182280;28;20045;-73
2023/05/11 02:21:37;;;;;;;3.70;2.83;;;;;;;10.63;100.00;98257.00;4184312;28;20505;-73
2023/05/11 02:23:38;;;;;;;7.75;2.80;;;;;;;10.62;100.00;98249.88;4183873;28;20040;-73
2023/05/11 02:25:39;;;;;;;3.33;2.85;;;;;;;10.63;100.00;98257.00;4181363;28;20052;-73
2023/05/11 02:27:40;;;;;;;7.07;2.63;;;;;;;10.62;100.00;98251.84;4183978;28;20036;-73
2023/05/11 02:29:40;;;;;;;4.30;2.63;;;;;;;10.62;100.00;98255.41;4183301;28;20139;-73
2023/05/11 02:31:46;;;;;;;3.35;2.60;;;;;;;10.63;100.00;98248.69;4177863;28;20512;-73
2023/05/11 02:33:49;;;;;;;3.45;2.70;;;;;;;10.66;100.00;98253.44;4183145;28;20051;-73
2023/05/11 02:35:50;;;;;;;3.78;2.80;;;;;;;10.66;100.00;98253.44;4184496;28;20075;-73
2023/05/11 02:37:54;;;;;;;5.82;3.05;;;;;;;10.71;100.00;98252.31;4185304;28;20044;-73
2023/05/11 02:40:12;;;;;;;4.40;3.20;;;;;;;10.75;100.00;98255.09;4180891;28;20799;-73
2023/05/11 02:42:22;;;;;;;5.82;2.78;;;;;;;10.75;100.00;98244.81;4184954;28;20040;-73
2023/05/11 02:44:27;;;;;;;5.35;3.45;;;;;;;10.79;100.00;98247.63;4181752;28;20037;-73
2023/05/11 02:46:32;;;;;;;4.63;3.30;;;;;;;10.81;100.00;98251.59;4179879;28;20040;-73
2023/05/11 02:48:40;;;;;;;5.28;3.55;;;;;;;10.82;100.00;98244.88;4186576;28;20101;-73
2023/05/11 02:50:42;;;;;;;4.80;3.42;;;;;;;10.83;100.00;98246.44;4184331;28;20131;-73
2023/05/11 02:52:45;;;;;;;4.47;3.78;;;;;;;10.85;100.00;98246.09;4179919;28;20048;-73
2023/05/11 02:54:50;;;;;;;5.00;3.65;;;;;;;10.85;100.00;98252.41;4182393;28;20036;-74
2023/05/11 02:56:51;;;;;;;5.30;4.28;;;;;;;10.86;100.00;98250.44;4183017;28;20047;-73
2023/05/11 02:58:51;;;;;;;5.97;4.20;;;;;;;10.83;100.00;98242.88;4187346;28;20055;-73
2023/05/11 03:00:52;;;;;;;5.20;4.15;;;;;;;10.81;100.00;98246.03;4184297;28;20407;-73
2023/05/11 03:02:52;;;;;;;4.95;4.20;;;;;;;10.84;100.00;98250.00;4180651;28;20029;-73
2023/05/11 03:04:52;;;;;;;5.15;4.00;;;;;;;10.85;100.00;98248.84;4184435;28;20045;-74
2023/05/11 03:06:53;;;;;;;4.97;4.07;;;;;;;10.84;100.00;98253.59;4180885;28;20049;-74
2023/05/11 03:08:53;;;;;;;7.20;4.97;;;;;;;10.80;100.00;98249.22;4176664;28;20053;-74
2023/05/11 03:10:56;;;;;;;6.03;5.43;;;;;;;10.80;100.00;98251.97;4184596;28;20060;-74
2023/05/11 03:12:57;;;;;;;5.90;4.70;;;;;;;10.78;100.00;98251.56;4181192;28;20037;-74
2023/05/11 03:14:59;;;;;;;6.47;4.78;;;;;;;10.76;100.00;98251.97;4188032;28;20052;-74
2023/05/11 03:17:01;;;;;;;4.38;3.65;;;;;;;10.77;100.00;98250.00;4181413;28;20628;-74
2023/05/11 03:19:02;;;;;;;5.55;3.45;;;;;;;10.69;100.00;98241.63;4182928;28;20206;-74
2023/05/11 03:21:04;;;;;;;4.65;2.97;;;;;;;10.72;100.00;98248.38;4183860;28;20080;-74
2023/05/11 03:23:06;;;;;;;12.15;4.53;;;;;;;10.68;100.00;98242.03;4181604;28;20124;-74
2023/05/11 03:25:08;;;;;;;6.75;4.20;;;;;;;10.68;100.00;98242.03;4184621;28;20040;-74
2023/05/11 03:27:10;;;;;;;4.63;3.38;;;;;;;10.67;100.00;98244.00;4179992;28;20041;-73
2023/05/11 03:29:12;;;;;;;6.13;2.83;;;;;;;10.68;100.00;98244.78;4180258;28;20060;-74
2023/05/11 03:31:13;;;;;;;4.07;2.90;;;;;;;10.65;100.00;98238.03;4179580;28;20385;-74
2023/05/11 03:33:13;;;;;;;7.03;2.83;;;;;;;10.66;100.00;98236.06;4184335;28;20045;-74
2023/05/11 03:35:14;;;;;;;6.90;2.90;;;;;;;10.65;100.00;98229.72;4181643;28;20101;-73
2023/05/11 03:37:17;;;;;;;4.18;2.78;;;;;;;10.66;100.00;98239.63;4179901;28;20536;-73
2023/05/11 03:39:20;;;;;;;3.85;2.50;;;;;;;10.68;100.00;98233.72;4180863;28;20052;-74
2023/05/11 03:41:22;;;;;;;4.68;2.55;;;;;;;10.70;100.00;98236.88;4184208;28;20487;-74
2023/05/11 03:43:25;;;;;;;5.80;2.73;;;;;;;10.67;100.00;98235.69;4180508;28;20036;-73
2023/05/11 03:45:27;;;;;;;3.17;2.60;;;;;;;10.68;100.00;98239.25;4185698;28;20049;-74
2023/05/11 03:47:30;;;;;;;4.05;2.40;;;;;;;10.68;100.00;98240.06;4185112;28;20067;-74
2023/05/11 03:49:30;;;;;;;3.63;2.38;;;;;;;10.69;100.00;98236.09;4183851;28;20049;-74
2023/05/11 03:51:33;;;;;;;4.45;2.58;;;;;;;10.69;100.00;98238.88;4180751;28;20060;-73
2023/05/11 03:53:33;;;;;;;6.82;2.78;;;;;;;10.70;100.00;98242.41;4181563;28;20037;-73
2023/05/11 03:55:34;;;;;;;4.20;2.70;;;;;;;10.69;100.00;98238.06;4182993;28;20063;-74
2023/05/11 03:57:35;;;;;;;9.32;2.55;;;;;;;10.68;100.00;98234.50;4180860;28;20059;-73
2023/05/11 03:59:35;;;;;;;5.13;2.88;;;;;;;10.71;100.00;98238.47;4183042;28;20169;-74
2023/05/11 04:01:36;;;;;;;4.25;2.60;;;;;;;10.72;100.00;98233.72;4182118;28;20036;-73
2023/05/11 04:03:50;;;;;;;3.80;2.45;;;;;;;10.74;100.00;98243.22;4176541;28;20044;-73
2023/05/11 04:05:50;;;;;;;4.05;2.97;;;;;;;10.72;100.00;98229.00;4180706;28;20099;-73
2023/05/11 04:07:50;;;;;;;4.30;2.45;;;;;;;10.77;100.00;98233.38;4183175;28;20052;-74
2023/05/11 04:09:51;;;;;;;4.95;2.50;;;;;;;10.78;100.00;98233.00;4182369;28;20485;-73
2023/05/11 04:11:51;;;;;;;3.97;3.08;;;;;;;10.80;100.00;98240.91;4176522;28;20167;-73
2023/05/11 04:13:52;;;;;;;6.57;3.60;;;;;;;10.81;100.00;98231.41;4188079;28;20044;-73
2023/05/11 04:15:52;;;;;;;4.53;2.88;;;;;;;10.79;100.00;98223.50;4181785;28;20055;-74
2023/05/11 04:17:52;;;;;;;5.55;3.10;;;;;;;10.81;100.00;98232.22;4177097;28;20065;-73
2023/05/11 04:19:53;;;;;;;5.60;2.75;;;;;;;10.81;100.00;98239.72;4181586;28;20037;-73
2023/05/11 04:21:53;;;;;;;5.13;2.60;;;;;;;10.82;100.00;98224.69;4182495;28;20045;-73
2023/05/11 04:23:53;;;;;;;4.03;3.15;;;;;;;10.81;100.00;98226.69;4183039;28;20037;-73
2023/05/11 04:25:55;;;;;;;4.90;3.20;;;;;;;10.85;100.00;98235.81;4178305;28;20044;-73
2023/05/11 04:27:55;;;;;;;7.22;6.45;;;;;;;10.89;100.00;98233.84;4183529;28;20041;-73
2023/05/11 04:29:56;;;;;;;6.82;5.85;;;;;;;10.89;100.00;98239.38;4184224;28;20045;-74
2023/05/11 04:31:56;;;;;;;7.72;6.00;;;;;;;10.94;100.00;98238.25;4179684;28;20063;-73
2023/05/11 04:33:56;;;;;;;8.30;5.38;;;;;;;10.95;100.00;98237.84;4182574;28;20053;-73
2023/05/11 04:35:57;;;;;;;6.57;5.05;;;;;;;10.98;100.00;98241.81;4181663;28;20053;-73
2023/05/11 04:37:57;;;;;;;5.82;4.07;;;;;;;11.01;100.00;98223.66;4179405;28;20546;-73
2023/05/11 04:39:58;;;;;;;6.40;3.78;;;;;;;11.02;100.00;98231.56;4182906;28;20036;-73
2023/05/11 04:41:59;;;;;;;6.55;4.47;;;;;;;11.05;100.00;98230.78;4176125;28;20072;-74
2023/05/11 04:43:59;;;;;;;5.97;4.78;;;;;;;11.10;100.00;98235.97;4184447;28;20380;-74
2023/05/11 04:46:00;;;;;;;7.43;5.25;;;;;;;11.10;100.00;98227.66;4181754;28;20049;-73
2023/05/11 04:48:00;;;;;;;7.80;7.03;;;;;;;11.12;100.00;98233.59;4182203;28;20068;-73
2023/05/11 04:50:01;;;;;;;10.13;8.95;;;;;;;11.06;100.00;98226.81;4176967;28;20516;-73
2023/05/11 04:52:01;;;;;;;10.65;9.57;;;;;;;11.07;100.00;98235.94;4187049;28;20049;-73
2023/05/11 04:54:01;;;;;;;10.35;9.15;;;;;;;11.07;100.00;98224.84;4180967;28;20083;-73
2023/05/11 04:56:02;;;;;;;6.20;5.03;;;;;;;11.12;100.00;98228.06;4182717;28;20039;-73
2023/05/11 04:58:02;;;;;;;7.07;4.57;;;;;;;11.17;100.00;98233.22;4152947;28;20052;-74
2023/05/11 05:00:04;;;;;;;12.93;8.68;;;;;;;11.18;100.00;98237.59;4184177;28;20393;-74
2023/05/11 05:02:04;;;;;;;16.07;11.07;;;;;;;11.19;100.00;98236.41;4181461;28;20058;-73
2023/05/11 05:04:04;;;;;;;15.55;13.95;;;;;;;11.16;100.00;98226.09;4177863;28;20353;-73
2023/05/11 05:06:05;;;;;;;9.43;6.68;;;;;;;11.25;100.00;98240.41;4182783;28;20032;-74
2023/05/11 05:08:06;;;;;;;11.85;8.60;;;;;;;11.24;100.00;98230.47;4184523;28;20058;-74
2023/05/11 05:10:08;;;;;;;9.10;6.90;;;;;;;11.25;100.00;98234.84;4186982;28;20032;-73
2023/05/11 05:12:08;;;;;;;6.68;4.63;;;;;;;11.29;100.00;98231.31;4183138;28;20086;-74
2023/05/11 05:14:08;;;;;;;7.65;5.63;;;;;;;11.33;100.00;98238.44;4184670;28;20509;-74
2023/05/11 05:16:09;;;;;;;7.05;5.38;;;;;;;11.32;100.00;98234.06;4185224;28;20090;-73
2023/05/11 05:18:09;;;;;;;6.13;4.95;;;;;;;11.36;100.00;98234.09;4184862;28;20112;-73
2023/05/11 05:20:10;;;;;;;11.00;5.60;;;;;;;11.41;100.00;98242.81;4184427;28;20086;-73
2023/05/11 05:22:10;;;;;;;6.68;4.40;;;;;;;11.41;100.00;98236.47;4181054;28;20028;-73
2023/05/11 05:24:11;;;;;;;6.80;5.28;;;;;;;11.44;100.00;98235.72;4179782;28;20024;-74
2023/05/11 05:26:11;;;;;;;8.65;5.22;;;;;;;11.46;100.00;98236.91;4181808;28;20037;-74
2023/05/11 05:28:11;;;;;;;6.97;4.30;;;;;;;11.52;100.00;98238.13;4183236;28;20032;-73
2023/05/11 05:30:12;;;;;;;7.70;5.22;;;;;;;11.56;100.00;98242.88;4181800;28;20041;-73
2023/05/11 05:32:12;;;;;;;9.48;5.88;;;;;;;11.58;100.00;98246.84;4180187;28;20453;-73
2023/05/11 05:34:13;;;;;;;8.55;4.80;;;;;;;11.60;100.00;98241.72;4180572;28;20028;-73
2023/05/11 05:36:13;;;;;;;7.38;4.97;;;;;;;11.63;100.00;98246.47;4178151;28;20031;-73
2023/05/11 05:38:13;;;;;;;8.15;4.63;;;;;;;11.65;100.00;98240.53;4181038;28;20028;-73
2023/05/11 05:40:14;;;;;;;7.75;4.38;;;;;;;11.71;100.00;98244.53;4180766;28;20569;-73
2023/05/11 05:42:14;;;;;;;9.40;5.00;;;;;;;11.74;100.00;98250.06;4180841;28;20453;-74
2023/05/11 05:44:15;;;;;;;8.40;5.35;;;;;;;11.70;100.00;98254.81;4180750;28;20096;-73
2023/05/11 05:46:15;;;;;;;8.13;5.15;;;;;;;11.73;100.00;98247.69;4182622;28;20029;-73
2023/05/11 05:48:15;;;;;;;10.18;5.50;;;;;;;11.73;100.00;98245.72;4178131;28;20017;-73
2023/05/11 05:50:16;;;;;;;9.35;5.25;;;;;;;11.78;100.00;98256.44;4180961;28;20118;-73
2023/05/11 05:52:16;;;;;;;7.00;4.95;;;;;;;11.80;100.00;98253.28;4182094;28;20083;-74
2023/05/11 05:54:16;;;;;;;8.10;4.63;;;;;;;11.85;100.00;98246.59;4181185;28;20117;-73
2023/05/11 05:56:17;;;;;;;7.47;5.10;;;;;;;11.87;100.00;98253.31;4185286;28;20068;-73
2023/05/11 05:58:17;;;;;;;8.82;4.97;;;;;;;11.93;100.00;98257.28;4185205;28;20031;-73
2023/05/11 06:00:17;;;;;;;9.18;5.10;;;;;;;11.98;100.00;98256.91;4181472;28;20028;-73
2023/05/11 06:02:18;;;;;;;10.15;5.85;;;;;;;12.03;100.00;98248.19;4181488;28;20262;-74
2023/05/11 06:04:18;;;;;;;8.27;5.90;;;;;;;12.01;100.00;98249.78;4181803;28;20025;-73
2023/05/11 06:06:18;;;;;;;13.35;8.95;;;;;;;12.02;100.00;98257.72;4186225;28;20116;-73
2023/05/11 06:08:19;;;;;;;12.40;7.85;;;;;;;12.07;100.00;98256.50;4181804;28;20028;-73
2023/05/11 06:10:19;;;;;;;12.50;8.80;;;;;;;12.07;100.00;98256.50;4180161;28;20497;-73
2023/05/11 06:12:19;;;;;;;10.52;6.68;;;;;;;12.05;100.00;98258.91;4181802;28;20610;-73
2023/05/11 06:14:21;;;;;;;9.85;6.60;;;;;;;12.03;100.00;98252.97;4182374;28;20020;-73
2023/05/11 06:16:21;;;;;;;12.07;6.28;;;;;;;12.06;100.00;98249.38;4182157;28;20049;-73
2023/05/11 06:18:22;;;;;;;9.18;5.90;;;;;;;12.12;100.00;98267.22;4181306;28;20496;-73
2023/05/11 06:20:23;;;;;;;9.73;6.50;;;;;;;12.19;100.00;98267.25;4179434;28;20390;-73
2023/05/11 06:22:23;;;;;;;9.05;5.68;;;;;;;12.22;100.00;98260.13;4177818;28;20037;-73
2023/05/11 06:24:23;;;;;;;10.73;6.32;;;;;;;12.23;100.00;98259.72;4180518;28;20041;-73
2023/05/11 06:26:24;;;;;;;10.30;6.30;;;;;;;12.20;100.00;98260.50;4179136;28;20047;-73
2023/05/11 06:28:24;;;;;;;9.68;5.82;;;;;;;12.21;100.00;98267.63;4179836;28;20546;-73
2023/05/11 06:30:25;;;;;;;10.90;6.13;;;;;;;12.21;100.00;98262.09;4181467;28;20064;-73
2023/05/11 06:32:25;;;;;;;11.38;6.28;;;;;;;12.20;100.00;98263.28;4178423;28;20459;-73
2023/05/11 06:34:25;;;;;;;9.57;6.35;;;;;;;12.17;100.00;98264.09;4179855;28;20075;-73
2023/05/11 06:36:26;;;;;;;9.18;5.75;;;;;;;12.25;100.00;98270.44;4181991;28;20051;-73
2023/05/11 06:38:27;;;;;;;10.20;6.13;;;;;;;12.27;100.00;98257.75;4177170;28;20045;-73
2023/05/11 06:40:28;;;;;;;10.65;6.93;;;;;;;12.30;100.00;98256.16;4178910;28;20028;-73
2023/05/11 06:42:28;;;;;;;12.85;7.40;;;;;;;12.29;100.00;98257.34;4180567;28;20048;-73
2023/05/11 06:44:28;;;;;;;9.40;6.05;;;;;;;12.32;100.00;98259.31;4184876;28;20037;-73
2023/05/11 06:46:29;;;;;;;9.68;6.13;;;;;;;12.36;100.00;98257.38;4184210;28;20564;-73
2023/05/11 06:48:29;;;;;;;11.88;6.63;;;;;;;12.41;100.00;98262.50;4182111;28;20089;-73
2023/05/11 06:50:30;;;;;;;12.63;7.75;;;;;;;12.38;100.00;98261.31;4185656;28;20373;-73
2023/05/11 06:52:30;;;;;;;13.20;7.30;;;;;;;12.41;100.00;98258.94;4175485;28;20041;-73
2023/05/11 06:54:31;;;;;;;10.52;6.80;;;;;;;12.34;100.00;98255.00;4183761;28;20366;-73
2023/05/11 06:56:32;;;;;;;11.88;7.10;;;;;;;12.40;100.00;98251.81;4184079;28;20094;-73
2023/05/11 06:58:33;;;;;;;9.35;6.57;;;;;;;12.47;100.00;98254.59;4184951;28;20060;-73
2023/05/11 07:00:33;;;;;;;11.02;6.60;;;;;;;12.42;100.00;98253.00;4185305;28;20032;-73
2023/05/11 07:02:33;;;;;;;12.02;7.40;;;;;;;12.41;100.00;98259.72;4178743;28;20044;-73
2023/05/11 07:04:34;;;;;;;9.43;6.80;;;;;;;12.40;100.00;98260.13;4179832;28;20504;-73
2023/05/11 07:06:34;;;;;;;13.73;7.20;;;;;;;12.40;100.00;98255.38;4183902;28;20041;-73
2023/05/11 07:08:35;;;;;;;9.88;6.63;;;;;;;12.44;100.00;98255.38;4182940;28;20446;-73
2023/05/11 07:10:35;;;;;;;10.35;6.35;;;;;;;12.46;100.00;98250.22;4182231;28;20051;-73
2023/05/11 07:12:36;;;;;;;9.82;6.28;;;;;;;12.55;100.00;98253.41;4181103;28;20068;-73
2023/05/11 07:14:37;;;;;;;11.02;7.05;;;;;;;12.60;100.00;98256.56;4179630;28;20068;-74
2023/05/11 07:16:37;;;;;;;11.73;7.05;;;;;;;12.69;100.00;98260.94;4181517;28;20301;-73
2023/05/11 07:18:38;;;;;;;11.45;7.07;;;;;;;12.57;100.00;98248.25;4182024;28;20102;-73
2023/05/11 07:20:39;;;;;;;11.85;6.68;;;;;;;12.61;100.00;98254.59;4181464;28;20041;-73
2023/05/11 07:22:40;;;;;;;13.43;8.67;;;;;;;12.73;100.00;98254.19;4178181;28;20163;-73
2023/05/11 07:24:40;;;;;;;15.98;9.35;;;;;;;12.67;100.00;98253.00;4179094;28;20076;-73
2023/05/11 07:26:40;;;;;;;13.75;8.15;;;;;;;12.79;100.00;98258.16;4179252;28;20049;-73
2023/05/11 07:28:41;;;;;;;12.82;7.63;;;;;;;12.92;100.00;98253.78;4178719;28;20467;-73
2023/05/11 07:30:41;;;;;;;13.75;7.38;;;;;;;13.04;100.00;98252.56;4179542;28;20057;-73
2023/05/11 07:32:41;;;;;;;14.00;6.63;;;;;;;13.14;100.00;98256.50;4180333;28;20032;-73
2023/05/11 07:34:43;;;;;;;13.75;7.75;;;;;;;13.10;100.00;98256.53;4178215;28;20147;-73
2023/05/11 07:36:43;;;;;;;12.52;7.53;;;;;;;13.25;100.00;98260.09;4179888;28;20044;-73
2023/05/11 07:38:44;;;;;;;11.23;6.93;;;;;;;13.36;100.00;98254.50;4179815;28;20036;-73
2023/05/11 07:40:44;;;;;;;10.45;6.35;;;;;;;13.46;100.00;98256.44;4177993;28;20098;-73
2023/05/11 07:42:44;;;;;;;12.00;7.00;;;;;;;13.44;100.00;98256.84;4179769;28;20045;-73
2023/05/11 07:44:45;;;;;;;10.88;6.30;;;;;;;13.47;100.00;98256.03;4180764;28;20151;-73
2023/05/11 07:46:45;;;;;;;10.57;6.30;;;;;;;13.46;100.00;98257.22;4179669;28;20362;-73
2023/05/11 07:48:46;;;;;;;12.70;6.50;;;;;;;13.50;100.00;98251.69;4181383;28;20155;-73
2023/05/11 07:50:46;;;;;;;14.10;7.88;;;;;;;13.38;100.00;98249.31;4178145;28;20395;-73
2023/05/11 07:52:46;;;;;;;11.57;7.38;;;;;;;13.51;100.00;98255.25;4178009;28;20086;-73
2023/05/11 07:54:46;;;;;;;14.73;10.20;;;;;;;13.39;100.00;98259.25;4179687;28;20048;-73
2023/05/11 07:56:47;;;;;;;14.68;9.60;;;;;;;13.35;100.00;98250.13;4179108;28;20045;-73
2023/05/11 07:58:47;;;;;;;9.85;6.22;;;;;;;13.52;100.00;98256.81;4183093;28;20040;-73
2023/05/11 08:00:47;;;;;;;11.65;7.53;;;;;;;13.51;100.00;98249.69;4179118;28;20039;-73
2023/05/11 08:02:48;;;;;;;12.18;6.70;;;;;;;13.59;100.00;98257.59;4176819;28;20519;-73
2023/05/11 08:04:49;;;;;;;9.18;6.82;;;;;;;13.69;100.00;98259.53;4178097;28;20374;-73
2023/05/11 08:06:49;;;;;;;10.68;6.40;;;;;;;13.88;100.00;98254.66;4178750;28;21095;-73
2023/05/11 08:08:49;;;;;;;8.00;5.47;;;;;;;13.91;100.00;98256.66;4177064;28;20041;-73
2023/05/11 08:10:50;;;;;;;9.77;6.20;;;;;;;13.82;100.00;98259.88;4180341;28;20489;-73
2023/05/11 08:12:51;;;;;;;8.20;5.45;;;;;;;13.87;100.00;98259.44;4176380;28;20039;-73
2023/05/11 08:14:51;;;;;;;10.43;6.47;;;;;;;13.93;100.00;98248.69;4179200;28;20067;-73
2023/05/11 08:16:51;;;;;;;9.35;5.90;;;;;;;13.86;100.00;98259.84;4179634;28;20348;-73
2023/05/11 08:18:51;;;;;;;10.52;5.47;;;;;;;13.96;100.00;98257.00;4179390;28;20159;-73
2023/05/11 08:20:52;;;;;;;8.18;5.50;;;;;;;13.92;100.00;98247.13;4178504;28;20044;-73
2023/05/11 08:22:52;;;;;;;9.23;5.20;;;;;;;13.97;100.00;98258.59;4178772;28;20037;-73
2023/05/11 08:24:53;;;;;;;7.85;4.75;;;;;;;13.90;100.00;98253.09;4177405;28;20063;-73
2023/05/11 08:26:53;;;;;;;11.35;5.97;;;;;;;13.82;100.00;98247.94;4179701;28;20041;-73
2023/05/11 08:28:53;;;;;;;9.13;5.63;;;;;;;13.66;100.00;98251.22;4178000;28;20394;-73
2023/05/11 08:30:55;;;;;;;11.38;6.00;;;;;;;13.64;100.00;98259.16;4177688;28;20133;-73
2023/05/11 08:32:55;;;;;;;7.10;4.55;;;;;;;13.67;100.00;98256.38;4177233;28;20381;-73
2023/05/11 08:34:56;;;;;;;8.10;4.88;;;;;;;13.85;100.00;98261.06;4180719;28;20044;-73
2023/05/11 08:36:57;;;;;;;7.78;4.38;;;;;;;13.83;100.00;98252.31;4178362;28;20288;-73
2023/05/11 08:38:58;;;;;;;6.78;3.83;;;;;;;13.97;100.00;98253.03;4179659;28;20049;-73
2023/05/11 08:41:00;;;;;;;6.88;4.53;;;;;;;14.08;100.00;98257.75;4178172;28;20064;-73
2023/05/11 08:43:04;;;;;;;8.18;4.85;;;;;;;14.04;100.00;98252.19;4179766;28;20474;-73
2023/05/11 08:45:05;;;;;;;7.00;5.03;;;;;;;14.12;100.00;98253.72;4185366;28;20320;-73
2023/05/11 08:47:06;;;;;;;7.53;5.32;;;;;;;14.25;100.00;98260.41;4182318;28;20037;-73
2023/05/11 08:49:07;;;;;;;5.65;3.67;;;;;;;14.28;100.00;98251.25;4179247;28;20056;-73
2023/05/11 08:51:08;;;;;;;6.03;4.15;;;;;;;14.34;100.00;98255.19;4181192;28;20049;-73
2023/05/11 08:53:08;;;;;;;5.57;4.07;;;;;;;14.16;100.00;98256.50;4181800;28;20120;-73
2023/05/11 08:55:09;;;;;;;7.68;4.60;;;;;;;14.23;100.00;98256.44;4181464;28;20506;-73
2023/05/11 08:57:12;;;;;;;7.00;4.82;;;;;;;14.25;100.00;98256.84;4184898;28;20055;-73
2023/05/11 08:59:12;;;;;;;;;;;;;;;14.17;100.00;98256.09;4183872;28;20090;-73
2023/05/11 09:01:14;;;;;;;7.30;4.50;;;;;;;13.95;100.00;98254.63;4185038;28;19916;-72
2023/05/11 09:03:18;;;;;;;5.85;3.78;;;;;;;14.17;100.00;98250.53;4181033;28;20566;-73
2023/05/11 09:05:19;;;;;;;6.85;4.10;;;;;;;13.95;100.00;98249.84;4183324;28;20049;-73
2023/05/11 09:07:21;;;;;;;4.72;3.15;;;;;;;14.03;100.00;98254.19;4183924;28;20072;-73
2023/05/11 09:09:22;;;;;;;;;;;;;;;13.96;100.00;98250.66;4184909;28;20048;-73
2023/05/11 09:11:23;;;;;;;7.00;4.75;;;;;;;14.03;100.00;98253.41;4184515;28;19990;-73
2023/05/11 09:13:24;;;;;;;5.47;3.92;;;;;;;14.04;100.00;98249.41;4182636;28;20049;-73
2023/05/11 09:15:24;;;;;;;6.40;3.83;;;;;;;14.24;100.00;98253.28;4185085;28;20066;-73
2023/05/11 09:17:27;;;;;;;5.60;3.95;;;;;;;14.40;100.00;98254.72;4183952;28;20175;-73
2023/05/11 09:19:27;;;;;;;5.78;4.13;;;;;;;14.46;100.00;98259.50;4185348;28;20041;-73
2023/05/11 09:21:30;;;;;;;6.85;3.95;;;;;;;14.55;100.00;98251.47;4183186;28;20044;-73
2023/05/11 09:23:31;;;;;;;5.63;3.70;;;;;;;14.53;100.00;98250.28;4181861;28;20054;-73
2023/05/11 09:25:33;;;;;;;8.55;4.22;;;;;;;14.58;100.00;98249.88;4181088;28;20062;-73